Terminal Aerodrome Forecast
Issued by NWS Shreveport, LA

Home | Current Version | Previous Version | Text Only | Print | Product List | Glossary On
Versions: 1 2 3 4 5 6 7 8 9 10 11 12 13 14 15 16 17 18 19 20 21 22
254
FTUS44 KSHV 231425 AAA
TAFMLU
TAF AMD
KMLU 231425Z 2314/2412 00000KT P6SM SKC
     FM231700 17010KT P6SM FEW250
     FM240300 18008KT P6SM FEW250
     FM240900 19008KT 1SM BR BKN025=

USA.gov is the U.S. government's official web portal to all federal, state and local government web resources and services.